Meteo Giornale » Osservazioni meteo Italia » Palermo-Punta Raisi

ore: 22:20 - Osservazioni Meteo Palermo-Punta Raisi
Lat. 38° 11' N Lon. 13° 6' E Alt. 21 metri s.l.m.

sereno Europe/Rome

18 °C

Sereno

Temp. 24 Ore

16 °C

24 °C

Sud

9.3 Km/h

Dew point 13 °C

Umidità 72 %

Visibilità  10 Km

Il sole sorge alle ore 07:22

Il sole tramonta alle ore 18:21

Data e Ora Cielo e Fenomeni T °C DP °C Um. % Pres. hPa Vis. km Vento km/h
Oggi h: 22:20 sereno Sereno 18 13 72 1023 10 S 9.3
Oggi h: 21:50 sereno Sereno 21 15 68 1023 10 N 7.4
Oggi h: 21:20 sereno Sereno 21 14 64 1023 10 N/NO 7.4
Oggi h: 20:50 sereno Sereno 20 13 64 1023 10 N 7.4
Oggi h: 20:20 sereno Sereno 21 14 64 1023 10 SO 13
Oggi h: 19:50 sereno Sereno 21 14 64 1023 10 S/SO 16.7
Oggi h: 19:20 sereno Sereno 21 15 68 1023 10 S 9.3
Oggi h: 18:50 sereno Sereno 22 12 53 1022 10 E/SE 7.4
Oggi h: 18:20 sereno Sereno 22 12 53 1022 10 E 9.3
Oggi h: 17:50 sereno Sereno 23 12 49 1022 10 E/NE 16.7
Oggi h: 17:20 sereno Sereno 23 13 53 1022 10 E/NE 20.3
Oggi h: 16:50 sereno Sereno 24 13 50 1022 10 E/NE 20.3
Oggi h: 16:20 sereno Sereno 24 13 50 1022 10 E/NE 25.9
Oggi h: 15:50 sereno Sereno 24 13 50 1022 10 E/NE 25.9
Oggi h: 15:20 sereno Sereno 24 12 47 1022 10 E/NE 22.2
Oggi h: 14:50 sereno Sereno 23 12 49 1023 10 E/NE 20.3
Oggi h: 14:20 sereno Sereno 24 12 47 1023 10 E/NE 20.3
Oggi h: 13:50 sereno Sereno 24 12 47 1023 10 E/NE 18.5
Oggi h: 13:20 sereno Sereno 22 14 60 1024 10 N/NE 13
Oggi h: 12:50 sereno Sereno 22 15 64 1024 10 N/NE 13
Oggi h: 12:20 sereno Sereno 22 15 64 1024 10 N/NE 11.1
Oggi h: 11:50 sereno Sereno 21 15 68 1025 10 N/NE 9.3
Oggi h: 11:20 sereno Sereno 21 14 64 1025 10 N 3.7
Oggi h: 10:50 sereno Sereno 21 14 64 1025 10 N 3.7
Oggi h: 10:20 sereno Sereno 20 15 72 1025 10 O/SO 7.4
Oggi h: 09:50 sereno Sereno 20 14 68 1025 10 N 3.7
Oggi h: 09:20 sereno Sereno 19 14 72 1025 10 N 1.8
Oggi h: 08:50 sereno Sereno 17 13 77 1024 10 N 3.7
Oggi h: 08:20 sereno Sereno 17 13 77 1024 10 N 5.5
Oggi h: 07:50 sereno Sereno 18 14 77 1023 10 SO 9.3
Oggi h: 07:20 sereno Sereno 18 12 67 1023 10 N 3.7
Oggi h: 05:50 sereno Sereno 19 12 63 1023 10 E 7.4
Oggi h: 05:20 sereno Sereno 19 12 63 1023 10 E 7.4
Oggi h: 04:50 sereno Sereno 18 12 67 1023 10 E/SE 7.4
Oggi h: 04:20 sereno Sereno 18 12 67 1023 10 SE 7.4
Oggi h: 03:50 sereno Sereno 18 12 67 1023 10 N 5.5
Oggi h: 03:20 sereno Sereno 16 12 77 1024 10 E/SE 7.4
Oggi h: 02:50 sereno Sereno 17 12 72 1024 10 S/SE 7.4
Oggi h: 02:20 sereno Sereno 16 11 72 1024 10 S 7.4
Oggi h: 01:20 sereno Sereno 17 12 72 1024 10 N 3.7
Oggi h: 00:50 sereno Sereno 18 12 67 1024 10 N 3.7
Oggi h: 00:20 sereno Sereno 17 12 72 1024 10 S 11.1
Ieri h: 23:50 sereno Sereno 17 13 77 1024 10 N 5.5
Ieri h: 23:20 sereno Sereno 18 13 72 1024 10 N 1.8
Ieri h: 22:50 sereno Sereno 17 13 77 1024 10 N 3.7